createdAt,value
2023-08-15T00:01:03.899Z,23.48
2023-08-15T00:03:05.399Z,23.49
2023-08-15T00:05:06.800Z,23.51
2023-08-15T00:07:11.115Z,23.53
2023-08-15T00:09:12.511Z,23.54
2023-08-15T00:11:13.891Z,23.56
2023-08-15T00:13:15.237Z,23.59
2023-08-15T00:15:16.575Z,23.58
2023-08-15T00:17:17.918Z,23.56
2023-08-15T00:19:19.288Z,23.55
2023-08-15T00:21:20.660Z,23.56
2023-08-15T00:23:22.036Z,23.55
2023-08-15T00:25:23.443Z,23.55
2023-08-15T00:27:24.799Z,23.52
2023-08-15T00:29:26.146Z,23.52
2023-08-15T00:31:27.616Z,23.49
2023-08-15T00:33:28.992Z,23.57
2023-08-15T00:35:30.380Z,23.55
2023-08-15T00:37:31.751Z,23.53
2023-08-15T00:39:33.069Z,23.53
2023-08-15T00:41:34.408Z,23.52
2023-08-15T00:43:35.733Z,23.49
2023-08-15T00:45:37.125Z,23.47
2023-08-15T00:47:39.201Z,23.45
2023-08-15T00:49:40.563Z,23.42
2023-08-15T00:51:41.883Z,23.38
2023-08-15T00:53:43.236Z,23.36
2023-08-15T00:55:44.558Z,23.33
2023-08-15T00:57:45.879Z,23.33
2023-08-15T00:59:47.633Z,23.33
2023-08-15T01:01:49.098Z,23.29
2023-08-15T01:03:50.543Z,23.26
2023-08-15T01:05:52.044Z,23.22
2023-08-15T01:07:53.439Z,23.26
2023-08-15T01:09:54.772Z,23.26
2023-08-15T01:11:56.139Z,23.26
2023-08-15T01:14:01.092Z,23.25
2023-08-15T01:16:02.641Z,23.22
2023-08-15T01:18:04.130Z,23.24
2023-08-15T01:20:05.528Z,23.23
2023-08-15T01:22:06.861Z,23.24
2023-08-15T01:24:08.228Z,23.24
2023-08-15T01:26:09.633Z,23.22
2023-08-15T01:28:11.001Z,23.19
2023-08-15T01:30:12.324Z,23.19
2023-08-15T01:32:13.704Z,23.16
2023-08-15T01:34:15.052Z,23.09
2023-08-15T01:36:16.662Z,23.04
2023-08-15T01:38:18.024Z,23.02
2023-08-15T01:40:19.375Z,23.01
2023-08-15T01:42:20.700Z,23.02
2023-08-15T01:44:22.044Z,22.96
2023-08-15T01:46:23.394Z,22.94
2023-08-15T01:48:24.778Z,22.98
2023-08-15T01:50:26.163Z,22.99
2023-08-15T01:52:27.536Z,22.93
2023-08-15T01:54:28.904Z,22.92
2023-08-15T01:56:30.234Z,22.85
2023-08-15T01:58:31.560Z,22.81
2023-08-15T02:00:32.935Z,22.77
2023-08-15T02:02:34.357Z,22.84
2023-08-15T02:04:35.690Z,22.86
2023-08-15T02:06:37.016Z,22.86
2023-08-15T02:08:38.367Z,22.79
2023-08-15T02:10:39.783Z,22.75
2023-08-15T02:12:41.190Z,22.70
2023-08-15T02:14:42.642Z,22.69
2023-08-15T02:16:43.995Z,22.67
2023-08-15T02:18:45.741Z,22.67
2023-08-15T02:20:47.071Z,22.67
2023-08-15T02:22:48.471Z,22.68
2023-08-15T02:24:49.796Z,22.64
2023-08-15T02:26:51.134Z,22.61
2023-08-15T02:28:52.523Z,22.61
2023-08-15T02:30:53.927Z,22.62
2023-08-15T02:32:55.305Z,22.57
2023-08-15T02:34:56.667Z,22.58
2023-08-15T02:36:58.570Z,22.57
2023-08-15T02:38:59.908Z,22.62
2023-08-15T02:41:01.738Z,22.68
2023-08-15T02:43:03.078Z,22.55
2023-08-15T02:45:04.418Z,22.44
2023-08-15T02:47:05.807Z,21.29
2023-08-15T02:49:07.141Z,22.26
2023-08-15T02:51:08.907Z,22.23
2023-08-15T02:53:10.297Z,22.17
2023-08-15T02:55:11.611Z,22.14
2023-08-15T02:57:12.987Z,22.11
2023-08-15T02:59:14.571Z,22.09
2023-08-15T03:01:15.948Z,22.06
2023-08-15T03:03:17.334Z,22.06
2023-08-15T03:05:18.704Z,22.02
2023-08-15T03:07:20.277Z,22.00
2023-08-15T03:09:21.908Z,22.03
2023-08-15T03:11:23.235Z,22.00
2023-08-15T03:13:24.565Z,21.97
2023-08-15T03:15:25.895Z,21.96
2023-08-15T03:17:27.221Z,22.00
2023-08-15T03:19:28.775Z,22.04
2023-08-15T03:21:30.111Z,22.03
2023-08-15T03:23:31.440Z,22.01
2023-08-15T03:25:32.796Z,21.96
2023-08-15T03:27:34.124Z,21.94
2023-08-15T03:29:36.222Z,21.93
2023-08-15T03:31:37.585Z,21.94
2023-08-15T03:33:39.024Z,21.97
2023-08-15T03:35:40.349Z,21.93
2023-08-15T03:37:41.681Z,21.92
2023-08-15T03:39:43.011Z,21.86
2023-08-15T03:41:44.436Z,21.81
2023-08-15T03:43:45.752Z,21.79
2023-08-15T03:45:47.154Z,21.75
2023-08-15T03:47:48.616Z,21.75
2023-08-15T03:49:49.969Z,21.70
2023-08-15T03:51:51.340Z,21.71
2023-08-15T03:53:52.694Z,21.67
2023-08-15T03:55:54.083Z,21.69
2023-08-15T03:57:55.412Z,21.69
2023-08-15T03:59:56.778Z,20.63
2023-08-15T04:01:59.165Z,21.69
2023-08-15T04:04:00.762Z,21.70
2023-08-15T04:06:02.146Z,21.73
2023-08-15T04:08:06.452Z,21.74
2023-08-15T04:10:07.858Z,21.76
2023-08-15T04:12:09.235Z,21.76
2023-08-15T04:14:10.585Z,21.78
2023-08-15T04:16:12.031Z,21.78
2023-08-15T04:18:13.433Z,21.79
2023-08-15T04:20:14.856Z,21.78
2023-08-15T04:22:16.244Z,21.79
2023-08-15T04:24:19.489Z,21.81
2023-08-15T04:26:20.854Z,21.86
2023-08-15T04:28:22.303Z,21.89
2023-08-15T04:30:23.631Z,21.89
2023-08-15T04:32:24.951Z,21.94
2023-08-15T04:34:26.331Z,21.97
2023-08-15T04:36:27.656Z,21.96
2023-08-15T04:38:29.057Z,22.05
2023-08-15T04:40:30.488Z,22.10
2023-08-15T04:42:31.872Z,22.12
2023-08-15T04:44:33.198Z,20.09
2023-08-15T04:46:34.579Z,22.24
2023-08-15T04:48:35.908Z,22.31
2023-08-15T04:50:37.232Z,22.38
2023-08-15T04:52:38.555Z,22.40
2023-08-15T04:54:39.877Z,22.46
2023-08-15T04:56:41.256Z,22.47
2023-08-15T04:58:42.576Z,22.47
2023-08-15T05:00:43.924Z,22.50
2023-08-15T05:02:45.265Z,22.50
2023-08-15T05:04:46.600Z,22.52
2023-08-15T05:06:47.974Z,22.55
2023-08-15T05:08:49.308Z,22.57
2023-08-15T05:10:50.685Z,22.58
2023-08-15T05:12:52.063Z,22.59
2023-08-15T05:14:53.411Z,22.63
2023-08-15T05:16:55.178Z,22.64
2023-08-15T05:18:56.536Z,22.64
2023-08-15T05:20:57.896Z,22.66
2023-08-15T05:22:59.260Z,22.67
2023-08-15T05:25:00.574Z,22.67
2023-08-15T05:27:01.915Z,22.70
2023-08-15T05:29:03.558Z,22.70
2023-08-15T05:31:04.936Z,22.71
2023-08-15T05:33:06.326Z,22.70
2023-08-15T05:35:07.752Z,22.72
2023-08-15T05:37:09.107Z,22.73
2023-08-15T05:39:10.593Z,22.75
2023-08-15T05:41:11.959Z,22.76
2023-08-15T05:43:13.397Z,22.73
2023-08-15T05:45:14.804Z,22.75
2023-08-15T05:47:16.293Z,22.75
2023-08-15T05:49:17.677Z,22.78
2023-08-15T05:51:19.288Z,22.79
2023-08-15T05:53:20.646Z,22.81
2023-08-15T05:55:21.965Z,22.82
2023-08-15T05:57:23.459Z,22.87
2023-08-15T05:59:25.089Z,22.86
2023-08-15T06:01:26.526Z,22.90
2023-08-15T06:03:49.438Z,22.94
2023-08-15T06:05:49.480Z,22.98
2023-08-15T06:07:50.876Z,23.00
2023-08-15T06:09:52.228Z,23.09
2023-08-15T06:11:53.582Z,23.28
2023-08-15T06:13:54.951Z,23.39
2023-08-15T06:15:56.302Z,23.46
2023-08-15T06:17:57.707Z,23.34
2023-08-15T06:19:59.110Z,23.20
2023-08-15T06:22:00.486Z,23.07
2023-08-15T06:24:01.828Z,23.00
2023-08-15T06:26:03.668Z,22.99
2023-08-15T06:28:04.995Z,22.97
2023-08-15T06:30:06.761Z,22.96
2023-08-15T06:32:10.198Z,22.95
2023-08-15T06:34:11.791Z,23.02
2023-08-15T06:36:13.165Z,23.09
2023-08-15T06:38:15.028Z,23.15
2023-08-15T06:40:16.543Z,23.19
2023-08-15T06:42:17.880Z,23.34
2023-08-15T06:44:19.235Z,23.48
2023-08-15T06:46:20.583Z,23.51
2023-08-15T06:48:22.035Z,23.56
2023-08-15T06:50:23.641Z,23.53
2023-08-15T06:52:24.963Z,23.42
2023-08-15T06:54:27.010Z,23.42
2023-08-15T06:56:28.434Z,23.57
2023-08-15T06:58:29.751Z,23.62
2023-08-15T07:00:31.512Z,23.28
2023-08-15T07:02:33.048Z,23.07
2023-08-15T07:04:34.583Z,23.11
2023-08-15T07:06:35.905Z,23.11
2023-08-15T07:08:37.420Z,23.16
2023-08-15T07:10:38.919Z,23.09
2023-08-15T07:12:40.297Z,23.07
2023-08-15T07:14:41.625Z,23.06
2023-08-15T07:16:43.059Z,23.05
2023-08-15T07:18:44.399Z,23.03
2023-08-15T07:20:46.135Z,23.02
2023-08-15T07:22:47.491Z,22.98
2023-08-15T07:24:48.818Z,22.97
2023-08-15T07:26:50.166Z,22.97
2023-08-15T07:28:51.567Z,22.96
2023-08-15T07:30:54.084Z,22.95
2023-08-15T07:32:56.533Z,22.96
2023-08-15T07:35:00.946Z,22.97
2023-08-15T07:37:02.300Z,22.97
2023-08-15T07:39:05.078Z,22.96
2023-08-15T07:41:06.475Z,22.97
2023-08-15T07:43:07.822Z,22.97
2023-08-15T07:45:12.430Z,22.98
2023-08-15T07:47:13.760Z,23.02
2023-08-15T07:49:15.765Z,23.08
2023-08-15T07:51:17.149Z,23.14
2023-08-15T07:53:18.530Z,23.21
2023-08-15T07:55:19.909Z,23.28
2023-08-15T07:57:21.234Z,23.37
2023-08-15T07:59:22.552Z,23.39
2023-08-15T08:01:24.080Z,23.45
2023-08-15T08:03:25.410Z,24.22
2023-08-15T08:05:26.772Z,24.66
2023-08-15T08:07:28.136Z,24.99
2023-08-15T08:09:29.846Z,25.18
2023-08-15T08:11:31.175Z,25.26
2023-08-15T08:13:32.507Z,25.07
2023-08-15T08:15:34.088Z,25.32
2023-08-15T08:17:35.511Z,25.48
2023-08-15T08:19:37.276Z,25.42
2023-08-15T08:21:38.702Z,25.48
2023-08-15T08:23:40.036Z,25.46
2023-08-15T08:25:41.431Z,25.32
2023-08-15T08:27:42.780Z,25.54
2023-08-15T08:29:44.765Z,25.42
2023-08-15T08:31:46.202Z,25.53
2023-08-15T08:33:47.602Z,25.53
2023-08-15T08:35:49.041Z,25.79
2023-08-15T08:37:53.071Z,25.70
2023-08-15T08:39:54.490Z,25.56
2023-08-15T08:41:55.833Z,25.52
2023-08-15T08:43:57.169Z,25.59
2023-08-15T08:45:59.219Z,25.52
2023-08-15T08:48:00.713Z,25.81
2023-08-15T08:50:02.195Z,25.93
2023-08-15T08:52:03.525Z,25.96
2023-08-15T08:54:04.846Z,25.93
2023-08-15T08:56:06.843Z,26.07
2023-08-15T08:58:09.117Z,26.29
2023-08-15T09:00:13.521Z,25.98
2023-08-15T09:02:16.418Z,25.93
2023-08-15T09:04:17.752Z,25.88
2023-08-15T09:06:19.076Z,25.88
2023-08-15T09:08:20.429Z,25.89
2023-08-15T09:10:21.810Z,26.00
2023-08-15T09:12:23.126Z,26.13
2023-08-15T09:14:24.448Z,26.39
2023-08-15T09:16:25.851Z,26.30
2023-08-15T09:18:27.221Z,26.52
2023-08-15T09:20:28.873Z,26.46
2023-08-15T09:22:30.213Z,26.51
2023-08-15T09:24:31.538Z,26.42
2023-08-15T09:26:32.947Z,26.50
2023-08-15T09:28:34.283Z,26.35
2023-08-15T09:30:35.614Z,26.38
2023-08-15T09:32:37.110Z,26.22
2023-08-15T09:34:38.532Z,25.17
2023-08-15T09:36:39.899Z,26.27
2023-08-15T09:38:41.238Z,26.31
2023-08-15T09:40:42.633Z,26.37
2023-08-15T09:42:45.189Z,26.03
2023-08-15T09:44:46.602Z,24.81
2023-08-15T09:46:49.230Z,24.03
2023-08-15T09:48:50.919Z,23.75
2023-08-15T09:50:52.336Z,23.59
2023-08-15T09:52:53.702Z,23.51
2023-08-15T09:54:55.072Z,23.42
2023-08-15T09:56:56.536Z,23.35
2023-08-15T09:58:57.860Z,23.30
2023-08-15T10:00:59.603Z,23.28
2023-08-15T10:03:01.136Z,23.27
2023-08-15T10:05:02.651Z,23.21
2023-08-15T10:07:04.076Z,23.23
2023-08-15T10:09:05.437Z,23.20
2023-08-15T10:11:06.772Z,23.18
2023-08-15T10:13:08.147Z,23.11
2023-08-15T10:15:09.498Z,23.09
2023-08-15T10:17:10.875Z,23.13
2023-08-15T10:19:12.274Z,23.13
2023-08-15T10:21:13.649Z,23.13
2023-08-15T10:23:14.970Z,23.10
2023-08-15T10:25:16.361Z,23.10
2023-08-15T10:27:17.731Z,23.08
2023-08-15T10:29:19.099Z,23.10
2023-08-15T10:31:20.898Z,23.02
2023-08-15T10:33:22.384Z,23.16
2023-08-15T10:35:26.956Z,23.21
2023-08-15T10:37:34.276Z,23.19
2023-08-15T10:39:35.635Z,23.20
2023-08-15T10:41:39.999Z,23.18
2023-08-15T10:43:41.408Z,23.18
2023-08-15T10:45:42.862Z,23.16
2023-08-15T10:47:44.292Z,23.16
2023-08-15T10:49:45.715Z,23.16
2023-08-15T10:51:47.049Z,23.11
2023-08-15T10:53:48.745Z,23.14
2023-08-15T10:55:50.079Z,23.14
2023-08-15T10:57:51.449Z,23.11
2023-08-15T10:59:52.812Z,23.11
2023-08-15T11:01:54.348Z,23.14
2023-08-15T11:03:55.779Z,23.14
2023-08-15T11:06:00.949Z,23.13
2023-08-15T11:08:05.439Z,23.10
2023-08-15T11:10:06.840Z,23.08
2023-08-15T11:12:08.796Z,23.06
2023-08-15T11:14:10.213Z,23.06
2023-08-15T11:16:11.613Z,23.08
2023-08-15T11:18:13.000Z,23.05
2023-08-15T11:20:14.426Z,23.10
2023-08-15T11:22:16.272Z,23.39
2023-08-15T11:24:17.745Z,23.26
2023-08-15T11:26:19.655Z,23.18
2023-08-15T11:28:21.035Z,23.07
2023-08-15T11:30:22.454Z,23.17
2023-08-15T11:32:23.772Z,23.38
2023-08-15T11:34:25.120Z,23.56
2023-08-15T11:36:26.457Z,23.67
2023-08-15T11:38:27.792Z,23.74
2023-08-15T11:40:30.956Z,23.78
2023-08-15T11:42:32.280Z,23.80
2023-08-15T11:44:33.620Z,23.82
2023-08-15T11:46:52.805Z,23.82
2023-08-15T11:48:55.669Z,23.83
2023-08-15T11:50:57.016Z,23.83
2023-08-15T11:52:58.472Z,23.83
2023-08-15T11:54:59.870Z,23.86
2023-08-15T11:57:01.482Z,23.86
2023-08-15T11:59:02.840Z,23.86
2023-08-15T12:01:04.241Z,23.87
2023-08-15T12:03:05.985Z,23.87
2023-08-15T12:05:07.336Z,23.88
2023-08-15T12:07:08.655Z,23.88
2023-08-15T12:09:10.057Z,23.89
2023-08-15T12:11:14.476Z,23.89
2023-08-15T12:13:15.836Z,23.89
2023-08-15T12:15:17.151Z,23.90
2023-08-15T12:17:18.491Z,23.90
2023-08-15T12:19:23.074Z,23.91
2023-08-15T12:21:26.006Z,23.92
2023-08-15T12:23:29.147Z,23.92
2023-08-15T12:25:31.151Z,23.92
2023-08-15T12:27:32.518Z,23.93
2023-08-15T12:30:12.220Z,23.93
2023-08-15T12:31:55.216Z,23.95
2023-08-15T12:33:56.808Z,23.95
2023-08-15T12:35:58.148Z,23.95
2023-08-15T12:38:02.605Z,23.95
2023-08-15T12:40:05.242Z,23.97
2023-08-15T12:42:09.330Z,23.96
2023-08-15T12:44:10.719Z,23.97
2023-08-15T12:46:12.100Z,23.98
2023-08-15T12:48:14.399Z,23.98
2023-08-15T12:50:15.781Z,24.00
2023-08-15T12:52:17.170Z,24.00
2023-08-15T12:54:20.461Z,24.00
2023-08-15T12:56:21.908Z,24.01
2023-08-15T12:58:23.259Z,24.02
2023-08-15T13:00:24.766Z,24.02
2023-08-15T13:02:28.575Z,24.01
2023-08-15T13:04:29.960Z,24.01
2023-08-15T13:06:31.392Z,24.01
2023-08-15T13:08:32.784Z,24.02
2023-08-15T13:10:34.158Z,24.02
2023-08-15T13:12:35.553Z,24.02
2023-08-15T13:14:36.904Z,24.04
2023-08-15T13:16:38.297Z,24.03
2023-08-15T13:18:39.713Z,24.04
2023-08-15T13:20:41.206Z,24.04
2023-08-15T13:22:42.626Z,24.04
2023-08-15T13:24:44.020Z,24.05
2023-08-15T13:26:45.425Z,24.05
2023-08-15T13:28:47.448Z,24.05
2023-08-15T13:30:48.959Z,24.04
2023-08-15T13:32:50.426Z,24.02
2023-08-15T13:34:51.892Z,24.01
2023-08-15T13:36:53.257Z,24.01
2023-08-15T13:38:54.702Z,24.01
2023-08-15T13:40:56.188Z,24.01
2023-08-15T13:42:59.067Z,24.01
2023-08-15T13:45:01.954Z,24.02
2023-08-15T13:47:05.223Z,24.03
2023-08-15T13:49:06.784Z,24.03
2023-08-15T13:51:08.105Z,24.03
2023-08-15T13:53:09.518Z,24.03
2023-08-15T13:55:13.697Z,24.04
2023-08-15T13:57:15.137Z,24.04
2023-08-15T13:59:16.456Z,24.05
2023-08-15T14:01:17.823Z,24.05
2023-08-15T14:03:19.256Z,24.04
2023-08-15T14:05:20.588Z,24.04
2023-08-15T14:07:22.303Z,24.05
2023-08-15T14:09:23.904Z,24.05
2023-08-15T14:11:25.251Z,24.04
2023-08-15T14:13:26.594Z,24.05
2023-08-15T14:15:27.960Z,24.05
2023-08-15T14:17:29.325Z,24.04
2023-08-15T14:19:33.331Z,24.04
2023-08-15T14:21:35.384Z,24.04
2023-08-15T14:23:36.785Z,24.02
2023-08-15T14:25:38.199Z,24.02
2023-08-15T14:27:42.731Z,24.03
2023-08-15T14:29:44.368Z,24.03
2023-08-15T14:31:45.807Z,24.03
2023-08-15T14:33:47.201Z,24.03
2023-08-15T14:35:48.598Z,24.02
2023-08-15T14:37:49.984Z,24.02
2023-08-15T14:39:51.368Z,24.02
2023-08-15T14:41:52.702Z,24.02
2023-08-15T14:43:54.043Z,24.02
2023-08-15T14:45:55.483Z,24.02
2023-08-15T14:47:56.861Z,24.02
2023-08-15T14:49:58.235Z,24.00
2023-08-15T14:52:00.525Z,24.01
2023-08-15T14:54:01.949Z,23.99
2023-08-15T14:56:03.329Z,23.99
2023-08-15T14:58:04.734Z,24.00
2023-08-15T15:00:06.154Z,23.98
2023-08-15T15:02:07.508Z,23.99
2023-08-15T15:04:08.857Z,23.99
2023-08-15T15:06:10.192Z,23.99
2023-08-15T15:08:11.576Z,23.98
2023-08-15T15:10:13.035Z,23.99
2023-08-15T15:12:17.642Z,23.99
2023-08-15T15:14:21.801Z,23.99
2023-08-15T15:16:26.327Z,23.98
2023-08-15T15:18:27.758Z,23.98
2023-08-15T15:20:30.325Z,23.97
2023-08-15T15:22:31.737Z,23.97
2023-08-15T15:24:33.087Z,23.97
2023-08-15T15:26:35.914Z,23.96
2023-08-15T15:28:37.319Z,23.96
2023-08-15T15:30:38.667Z,23.96
2023-08-15T15:32:40.042Z,23.96
2023-08-15T15:34:41.434Z,23.93
2023-08-15T15:36:42.822Z,23.93
2023-08-15T15:38:44.211Z,23.92
2023-08-15T15:40:45.545Z,23.92
2023-08-15T15:42:47.051Z,23.90
2023-08-15T15:44:48.372Z,23.89
2023-08-15T15:46:54.891Z,23.88
2023-08-15T15:48:57.097Z,23.87
2023-08-15T15:50:58.444Z,23.86
2023-08-15T15:53:04.542Z,23.85
2023-08-15T15:55:07.025Z,23.85
2023-08-15T15:57:10.038Z,23.84
2023-08-15T15:59:11.560Z,23.84
2023-08-15T16:01:13.236Z,23.84
2023-08-15T16:03:14.652Z,23.83
2023-08-15T16:05:16.197Z,23.82
2023-08-15T16:07:17.604Z,23.80
2023-08-15T16:09:19.068Z,23.81
2023-08-15T16:11:20.453Z,23.80
2023-08-15T16:13:24.051Z,23.79
2023-08-15T16:15:25.400Z,23.80
2023-08-15T16:17:27.168Z,23.79
2023-08-15T16:19:28.516Z,23.78
2023-08-15T16:21:29.880Z,23.78
2023-08-15T16:23:31.196Z,23.78
2023-08-15T16:25:32.643Z,23.77
2023-08-15T16:27:36.745Z,23.77
2023-08-15T16:29:38.125Z,23.76
2023-08-15T16:31:39.581Z,23.76
2023-08-15T16:33:40.963Z,23.76
2023-08-15T16:35:42.300Z,23.75
2023-08-15T16:37:46.817Z,23.76
2023-08-15T16:39:48.234Z,22.72
2023-08-15T16:41:49.594Z,23.74
2023-08-15T16:43:51.925Z,23.73
2023-08-15T16:45:53.353Z,23.74
2023-08-15T16:47:54.690Z,23.73
2023-08-15T16:49:56.032Z,23.73
2023-08-15T16:51:57.364Z,23.73
2023-08-15T16:53:58.684Z,23.73
2023-08-15T16:56:00.654Z,23.74
2023-08-15T16:58:02.149Z,23.73
2023-08-15T17:00:03.525Z,23.72
2023-08-15T17:02:04.902Z,23.72
2023-08-15T17:04:06.296Z,23.72
2023-08-15T17:06:10.595Z,23.72
2023-08-15T17:08:11.977Z,23.71
2023-08-15T17:10:13.303Z,23.70
2023-08-15T17:12:14.636Z,23.70
2023-08-15T17:14:16.068Z,23.70
2023-08-15T17:16:17.657Z,23.69
2023-08-15T17:18:19.118Z,23.69
2023-08-15T17:20:20.508Z,23.69
2023-08-15T17:22:22.193Z,23.69
2023-08-15T17:24:23.809Z,23.67
2023-08-15T17:26:27.492Z,23.68
2023-08-15T17:28:28.927Z,23.67
2023-08-15T17:30:30.480Z,23.67
2023-08-15T17:32:32.529Z,23.67
2023-08-15T17:34:36.719Z,23.65
2023-08-15T17:36:38.151Z,23.66
2023-08-15T17:38:39.550Z,23.66
2023-08-15T17:40:40.883Z,23.66
2023-08-15T17:42:42.220Z,23.65
2023-08-15T17:44:43.607Z,23.64
2023-08-15T17:46:45.006Z,23.65
2023-08-15T17:48:46.700Z,23.64
2023-08-15T17:50:48.694Z,23.64
2023-08-15T17:52:50.048Z,23.63
2023-08-15T17:54:51.426Z,23.62
2023-08-15T17:56:55.702Z,23.62
2023-08-15T17:58:57.054Z,23.62
2023-08-15T18:00:58.415Z,23.62
2023-08-15T18:03:00.134Z,23.62
2023-08-15T18:05:01.623Z,23.62
2023-08-15T18:07:02.948Z,23.61
2023-08-15T18:09:05.897Z,23.61
2023-08-15T18:11:07.268Z,23.60
2023-08-15T18:13:08.582Z,23.61
2023-08-15T18:15:11.331Z,23.59
2023-08-15T18:17:12.726Z,23.59
2023-08-15T18:19:16.203Z,23.61
2023-08-15T18:21:17.736Z,23.58
2023-08-15T18:23:19.083Z,23.59
2023-08-15T18:25:20.419Z,23.57
2023-08-15T18:27:21.750Z,23.59
2023-08-15T18:29:23.220Z,23.58
2023-08-15T18:31:24.600Z,23.58
2023-08-15T18:33:26.092Z,23.58
2023-08-15T18:35:27.430Z,23.57
2023-08-15T18:37:28.794Z,23.57
2023-08-15T18:39:36.059Z,23.56
2023-08-15T18:41:37.623Z,23.57
2023-08-15T18:43:38.971Z,23.57
2023-08-15T18:45:40.312Z,23.55
2023-08-15T18:47:41.779Z,23.57
2023-08-15T18:49:43.233Z,23.57
2023-08-15T18:51:44.550Z,23.56
2023-08-15T18:53:45.993Z,23.56
2023-08-15T18:55:47.403Z,23.55
2023-08-15T18:57:48.719Z,23.54
2023-08-15T18:59:50.052Z,23.55
2023-08-15T19:01:51.563Z,23.54
2023-08-15T19:03:53.044Z,23.54
2023-08-15T19:05:54.877Z,23.54
2023-08-15T19:07:56.803Z,23.53
2023-08-15T19:10:01.983Z,23.53
2023-08-15T19:12:04.640Z,23.53
2023-08-15T19:14:10.061Z,23.53
2023-08-15T19:16:11.503Z,23.53
2023-08-15T19:18:12.922Z,23.52
2023-08-15T19:20:17.143Z,23.52
2023-08-15T19:22:18.484Z,23.52
2023-08-15T19:24:19.852Z,23.51
2023-08-15T19:26:24.192Z,23.51
2023-08-15T19:28:26.890Z,23.51
2023-08-15T19:30:28.235Z,23.51
2023-08-15T19:32:32.552Z,23.50
2023-08-15T19:34:36.667Z,23.51
2023-08-15T19:36:38.038Z,23.51
2023-08-15T19:38:39.364Z,23.51
2023-08-15T19:40:40.865Z,23.51
2023-08-15T19:42:42.558Z,23.49
2023-08-15T19:44:44.020Z,23.51
2023-08-15T19:46:45.453Z,23.49
2023-08-15T19:48:46.777Z,23.49
2023-08-15T19:50:48.171Z,23.49
2023-08-15T19:52:49.541Z,23.49
2023-08-15T19:54:50.933Z,23.49
2023-08-15T19:56:52.270Z,23.48
2023-08-15T19:58:53.637Z,23.48
2023-08-15T20:00:55.075Z,23.48
2023-08-15T20:02:56.561Z,23.47
2023-08-15T20:04:57.965Z,23.47
2023-08-15T20:06:59.313Z,23.48
2023-08-15T20:09:00.652Z,23.47
2023-08-15T20:11:02.014Z,23.46
2023-08-15T20:13:03.543Z,23.46
2023-08-15T20:15:04.919Z,23.44
2023-08-15T20:17:06.265Z,22.40
2023-08-15T20:19:07.633Z,23.46
2023-08-15T20:21:09.023Z,23.45
2023-08-15T20:23:10.336Z,23.45
2023-08-15T20:25:11.713Z,23.46
2023-08-15T20:27:15.884Z,23.45
2023-08-15T20:29:20.170Z,23.45
2023-08-15T20:31:21.631Z,23.44
2023-08-15T20:33:23.132Z,23.44
2023-08-15T20:35:24.510Z,23.44
2023-08-15T20:37:26.533Z,23.44
2023-08-15T20:39:28.104Z,23.44
2023-08-15T20:41:29.474Z,23.43
2023-08-15T20:43:30.861Z,23.43
2023-08-15T20:45:32.178Z,23.43
2023-08-15T20:47:33.511Z,23.43
2023-08-15T20:49:34.891Z,23.43
2023-08-15T20:51:36.283Z,23.43
2023-08-15T20:53:37.713Z,23.42
2023-08-15T20:55:39.482Z,23.42
2023-08-15T20:57:40.845Z,23.41
2023-08-15T20:59:42.212Z,23.42
2023-08-15T21:01:46.635Z,23.42
2023-08-15T21:03:48.013Z,23.41
2023-08-15T21:05:49.439Z,23.41
2023-08-15T21:07:51.169Z,23.41
2023-08-15T21:09:52.546Z,23.42
2023-08-15T21:11:53.939Z,23.41
2023-08-15T21:13:55.342Z,23.41
2023-08-15T21:15:56.707Z,22.35
2023-08-15T21:17:58.123Z,23.40
2023-08-15T21:19:59.504Z,23.40
2023-08-15T21:22:00.844Z,23.90
2023-08-15T21:24:02.250Z,24.43
2023-08-15T21:26:03.564Z,24.63
2023-08-15T21:28:04.933Z,24.45
2023-08-15T21:30:06.249Z,24.34
2023-08-15T21:32:09.549Z,24.24
2023-08-15T21:34:11.481Z,24.81
2023-08-15T21:36:12.851Z,24.35
2023-08-15T21:38:14.223Z,24.61
2023-08-15T21:40:15.714Z,24.90
2023-08-15T21:42:17.062Z,24.93
2023-08-15T21:44:19.104Z,24.93
2023-08-15T21:46:20.475Z,24.92
2023-08-15T21:48:21.888Z,24.66
2023-08-15T21:50:23.213Z,24.93
2023-08-15T21:52:24.588Z,24.70
2023-08-15T21:54:25.965Z,24.76
2023-08-15T21:56:29.552Z,24.69
2023-08-15T21:58:32.577Z,24.68
2023-08-15T22:00:33.945Z,24.76
2023-08-15T22:02:35.390Z,25.01
2023-08-15T22:04:36.762Z,24.84
2023-08-15T22:06:38.086Z,25.15
2023-08-15T22:08:41.870Z,25.09
2023-08-15T22:10:43.234Z,24.94
2023-08-15T22:12:44.620Z,25.07
2023-08-15T22:14:45.941Z,24.85
2023-08-15T22:16:47.383Z,24.98
2023-08-15T22:18:48.835Z,24.63
2023-08-15T22:20:50.253Z,24.57
2023-08-15T22:22:51.634Z,24.00
2023-08-15T22:25:04.651Z,24.13
2023-08-15T22:27:07.776Z,24.91
2023-08-15T22:29:09.751Z,24.99
2023-08-15T22:31:11.128Z,24.74
2023-08-15T22:33:12.537Z,24.62
2023-08-15T22:35:13.942Z,24.53
2023-08-15T22:37:15.296Z,24.58
2023-08-15T22:39:17.105Z,24.74
2023-08-15T22:41:18.430Z,24.99
2023-08-15T22:43:19.761Z,24.74
2023-08-15T22:45:21.082Z,24.63
2023-08-15T22:47:23.236Z,24.66
2023-08-15T22:49:24.872Z,24.60
2023-08-15T22:51:26.282Z,24.56
2023-08-15T22:53:27.685Z,24.63
2023-08-15T22:55:30.403Z,24.66
2023-08-15T22:57:31.819Z,24.66
2023-08-15T22:59:33.217Z,24.44
2023-08-15T23:01:34.624Z,24.07
2023-08-15T23:03:35.996Z,23.95
2023-08-15T23:05:37.346Z,24.32
2023-08-15T23:07:38.733Z,24.62
2023-08-15T23:09:40.060Z,25.08
2023-08-15T23:11:41.543Z,24.92
2023-08-15T23:13:42.881Z,24.86
2023-08-15T23:15:44.292Z,24.84
2023-08-15T23:17:45.706Z,24.94
2023-08-15T23:19:47.084Z,25.05
2023-08-15T23:21:49.060Z,24.90
2023-08-15T23:23:50.384Z,24.93
2023-08-15T23:25:51.718Z,24.82
2023-08-15T23:27:53.125Z,24.32
2023-08-15T23:29:54.520Z,24.00
2023-08-15T23:31:56.952Z,24.07
2023-08-15T23:33:59.415Z,24.34
2023-08-15T23:36:00.825Z,24.71
2023-08-15T23:38:02.155Z,24.72
2023-08-15T23:40:03.597Z,24.80
2023-08-15T23:42:04.974Z,24.77
2023-08-15T23:44:06.503Z,25.11
2023-08-15T23:46:07.888Z,24.91
2023-08-15T23:48:09.264Z,24.83
2023-08-15T23:50:10.801Z,24.75
2023-08-15T23:52:12.178Z,24.76
2023-08-15T23:54:13.567Z,24.81
2023-08-15T23:56:15.594Z,24.83
2023-08-15T23:58:17.153Z,25.03
